createdAt,value
2017-09-03T00:01:21.692Z,9.03
2017-09-03T00:03:49.152Z,10.70
2017-09-03T00:06:16.603Z,11.40
2017-09-03T00:08:44.361Z,10.63
2017-09-03T00:11:11.780Z,9.47
2017-09-03T00:13:39.239Z,10.30
2017-09-03T00:16:06.682Z,10.10
2017-09-03T00:18:34.173Z,9.50
2017-09-03T00:21:01.625Z,10.60
2017-09-03T00:23:29.062Z,10.47
2017-09-03T00:25:56.565Z,11.30
2017-09-03T00:28:25.531Z,11.40
2017-09-03T00:30:55.436Z,10.30
2017-09-03T00:33:22.866Z,9.33
2017-09-03T00:35:51.118Z,10.23
2017-09-03T00:38:18.565Z,10.27
2017-09-03T00:40:46.042Z,10.80
2017-09-03T00:43:13.649Z,10.50
2017-09-03T00:45:41.095Z,10.53
2017-09-03T00:48:08.743Z,11.60
2017-09-03T00:50:36.185Z,12.37
2017-09-03T00:53:03.644Z,11.50
2017-09-03T00:55:31.130Z,12.60
2017-09-03T00:57:58.565Z,11.63
2017-09-03T01:00:26.041Z,11.43
2017-09-03T01:02:53.478Z,10.93
2017-09-03T01:05:20.931Z,10.30
2017-09-03T01:07:48.413Z,11.13
2017-09-03T01:10:15.853Z,11.63
2017-09-03T01:12:43.286Z,11.00
2017-09-03T01:15:10.749Z,11.80
2017-09-03T01:17:38.204Z,11.63
2017-09-03T01:20:05.816Z,10.80
2017-09-03T01:22:33.260Z,10.60
2017-09-03T01:25:00.731Z,11.23
2017-09-03T01:27:28.172Z,12.40
2017-09-03T01:29:57.197Z,12.43
2017-09-03T01:32:24.682Z,11.40
2017-09-03T01:34:52.147Z,11.80
2017-09-03T01:37:19.633Z,10.47
2017-09-03T01:39:47.072Z,10.90
2017-09-03T01:42:14.557Z,11.37
2017-09-03T01:44:41.983Z,11.33
2017-09-03T01:47:09.473Z,10.40
2017-09-03T01:49:36.944Z,10.80
2017-09-03T01:52:04.616Z,10.90
2017-09-03T01:54:32.072Z,10.80
2017-09-03T01:56:59.552Z,11.60
2017-09-03T01:59:27.378Z,11.10
2017-09-03T02:01:54.822Z,11.10
2017-09-03T02:04:22.302Z,12.73
2017-09-03T02:06:49.858Z,11.60
2017-09-03T02:09:17.435Z,12.40
2017-09-03T02:11:44.930Z,12.07
2017-09-03T02:14:12.381Z,11.60
2017-09-03T02:16:39.843Z,10.97
2017-09-03T02:19:07.273Z,10.43
2017-09-03T02:21:34.745Z,12.53
2017-09-03T02:24:02.182Z,13.20
2017-09-03T02:26:29.637Z,13.70
2017-09-03T02:28:57.098Z,12.87
2017-09-03T02:31:24.559Z,16.33
2017-09-03T02:33:52.000Z,13.77
2017-09-03T02:36:19.462Z,15.67
2017-09-03T02:38:46.920Z,15.50
2017-09-03T02:41:14.368Z,15.57
2017-09-03T02:43:41.839Z,15.17
2017-09-03T02:46:09.320Z,16.20
2017-09-03T02:48:37.561Z,15.83
2017-09-03T02:51:05.030Z,14.47
2017-09-03T02:53:32.477Z,15.10
2017-09-03T02:55:59.953Z,15.37
2017-09-03T02:58:27.459Z,15.60
2017-09-03T03:00:54.907Z,14.57
2017-09-03T03:03:22.370Z,15.10
2017-09-03T03:05:49.815Z,14.60
2017-09-03T03:08:18.069Z,16.10
2017-09-03T03:13:27.456Z,15.20
2017-09-03T03:15:55.677Z,15.80
2017-09-03T03:18:23.116Z,16.33
2017-09-03T03:20:50.590Z,16.07
2017-09-03T03:23:18.257Z,16.20
2017-09-03T03:25:45.682Z,16.53
2017-09-03T03:28:13.281Z,16.27
2017-09-03T03:30:40.730Z,17.00
2017-09-03T03:33:08.186Z,17.03
2017-09-03T03:35:35.629Z,17.57
2017-09-03T03:38:03.121Z,16.40
2017-09-03T03:40:30.558Z,15.37
2017-09-03T03:42:58.226Z,15.83
2017-09-03T03:45:25.675Z,16.50
2017-09-03T03:47:53.159Z,17.33
2017-09-03T03:50:20.612Z,17.77
2017-09-03T03:52:48.178Z,15.90
2017-09-03T03:55:15.615Z,17.27
2017-09-03T03:57:43.091Z,18.47
2017-09-03T04:00:10.520Z,15.80
2017-09-03T04:02:37.986Z,16.30
2017-09-03T04:05:05.444Z,17.37
2017-09-03T04:07:32.883Z,16.03
2017-09-03T04:10:01.272Z,17.70
2017-09-03T04:12:28.709Z,16.80
2017-09-03T04:14:56.173Z,16.13
2017-09-03T04:17:23.641Z,15.07
2017-09-03T04:19:51.172Z,17.43
2017-09-03T04:22:18.833Z,16.50
2017-09-03T04:24:46.282Z,19.30
2017-09-03T04:27:13.713Z,19.70
2017-09-03T04:29:41.172Z,18.10
2017-09-03T04:32:08.628Z,19.80
2017-09-03T04:34:36.070Z,18.90
2017-09-03T04:37:03.536Z,20.70
2017-09-03T04:39:32.945Z,20.70
2017-09-03T04:42:00.439Z,19.17
2017-09-03T04:44:27.876Z,20.03
2017-09-03T04:46:55.689Z,21.20
2017-09-03T04:49:23.134Z,21.53
2017-09-03T04:51:51.485Z,21.20
2017-09-03T04:54:18.948Z,20.73
2017-09-03T04:56:46.380Z,20.73
2017-09-03T04:59:13.850Z,24.40
2017-09-03T05:01:41.297Z,23.73
2017-09-03T05:04:08.755Z,22.10
2017-09-03T05:06:36.214Z,22.13
2017-09-03T05:09:03.653Z,24.97
2017-09-03T05:11:31.128Z,21.83
2017-09-03T05:13:58.573Z,23.13
2017-09-03T05:16:26.077Z,25.50
2017-09-03T05:18:53.525Z,28.20
2017-09-03T05:21:20.990Z,31.20
2017-09-03T05:23:48.432Z,31.00
2017-09-03T05:26:15.908Z,26.90
2017-09-03T05:28:43.344Z,25.40
2017-09-03T05:31:10.797Z,28.10
2017-09-03T05:33:38.291Z,25.27
2017-09-03T05:36:05.733Z,24.87
2017-09-03T05:38:33.939Z,26.77
2017-09-03T05:41:01.396Z,28.10
2017-09-03T05:43:29.601Z,24.97
2017-09-03T05:45:57.074Z,23.97
2017-09-03T05:48:24.526Z,23.63
2017-09-03T05:50:51.991Z,22.90
2017-09-03T05:53:19.458Z,20.20
2017-09-03T05:55:46.905Z,23.60
2017-09-03T05:58:14.366Z,20.40
2017-09-03T06:00:41.833Z,19.33
2017-09-03T06:03:09.320Z,20.40
2017-09-03T06:05:36.754Z,22.73
2017-09-03T06:08:05.714Z,24.40
2017-09-03T06:10:33.158Z,21.60
2017-09-03T06:13:00.605Z,21.97
2017-09-03T06:15:28.090Z,18.80
2017-09-03T06:17:55.519Z,20.27
2017-09-03T06:20:23.095Z,20.00
2017-09-03T06:22:50.541Z,19.10
2017-09-03T06:25:17.998Z,18.97
2017-09-03T06:27:45.444Z,20.70
2017-09-03T06:30:12.883Z,21.70
2017-09-03T06:32:40.402Z,21.07
2017-09-03T06:35:07.871Z,22.30
2017-09-03T06:37:36.774Z,22.37
2017-09-03T06:40:04.244Z,20.37
2017-09-03T06:42:31.685Z,21.07
2017-09-03T06:44:59.157Z,20.77
2017-09-03T06:47:26.601Z,20.00
2017-09-03T06:49:54.071Z,22.23
2017-09-03T06:52:21.514Z,21.97
2017-09-03T06:54:48.966Z,19.77
2017-09-03T06:57:16.441Z,18.63
2017-09-03T06:59:43.891Z,17.73
2017-09-03T07:02:12.129Z,20.23
2017-09-03T07:04:39.755Z,20.07
2017-09-03T07:07:07.225Z,19.17
2017-09-03T07:09:34.668Z,16.80
2017-09-03T07:12:02.135Z,15.30
2017-09-03T07:14:29.863Z,14.67
2017-09-03T07:16:57.633Z,16.03
2017-09-03T07:19:25.403Z,17.03
2017-09-03T07:21:52.851Z,15.40
2017-09-03T07:24:20.301Z,14.93
2017-09-03T07:26:47.799Z,16.60
2017-09-03T07:29:15.312Z,16.70
2017-09-03T07:31:42.751Z,17.40
2017-09-03T07:34:10.195Z,16.07
2017-09-03T07:36:37.856Z,16.90
2017-09-03T07:39:05.327Z,19.77
2017-09-03T07:41:32.794Z,19.53
2017-09-03T07:44:00.297Z,18.80
2017-09-03T07:46:27.927Z,20.80
2017-09-03T07:48:55.370Z,20.30
2017-09-03T07:51:22.965Z,17.47
2017-09-03T07:53:50.434Z,16.70
2017-09-03T07:56:18.195Z,16.70
2017-09-03T07:58:45.668Z,19.50
2017-09-03T08:01:13.364Z,15.90
2017-09-03T08:03:40.796Z,15.43
2017-09-03T08:06:08.642Z,16.00
2017-09-03T08:08:36.100Z,17.87
2017-09-03T08:11:03.596Z,18.03
2017-09-03T08:13:31.061Z,17.73
2017-09-03T08:15:58.624Z,16.90
2017-09-03T08:18:26.080Z,18.93
2017-09-03T08:20:54.296Z,14.90
2017-09-03T08:23:31.022Z,17.77
2017-09-03T08:25:59.058Z,17.20
2017-09-03T08:28:27.437Z,15.80
2017-09-03T08:30:54.898Z,19.00
2017-09-03T08:33:22.389Z,16.80
2017-09-03T08:35:49.850Z,17.17
2017-09-03T08:38:17.318Z,18.33
2017-09-03T08:40:44.778Z,21.20
2017-09-03T08:43:12.213Z,20.50
2017-09-03T08:45:39.683Z,23.40
2017-09-03T08:48:07.409Z,22.57
2017-09-03T08:50:34.884Z,22.87
2017-09-03T08:53:02.645Z,21.03
2017-09-03T08:55:30.124Z,22.10
2017-09-03T08:57:57.592Z,21.47
2017-09-03T09:00:25.025Z,19.63
2017-09-03T09:02:52.499Z,23.23
2017-09-03T09:05:19.955Z,25.10
2017-09-03T09:07:47.438Z,24.47
2017-09-03T09:10:15.154Z,26.90
2017-09-03T09:12:43.429Z,26.47
2017-09-03T09:15:11.050Z,26.13
2017-09-03T09:17:38.533Z,26.27
2017-09-03T09:20:06.018Z,24.97
2017-09-03T09:22:33.476Z,23.73
2017-09-03T09:25:00.974Z,25.33
2017-09-03T09:27:28.427Z,25.63
2017-09-03T09:29:55.986Z,26.60
2017-09-03T09:32:23.483Z,25.27
2017-09-03T09:34:50.921Z,25.03
2017-09-03T09:37:18.382Z,24.03
2017-09-03T09:39:45.864Z,24.17
2017-09-03T09:42:13.345Z,25.60
2017-09-03T09:44:42.056Z,22.23
2017-09-03T09:47:09.593Z,21.70
2017-09-03T09:49:37.066Z,21.23
2017-09-03T09:52:04.594Z,22.73
2017-09-03T09:54:32.030Z,22.63
2017-09-03T09:56:59.704Z,20.23
2017-09-03T09:59:27.158Z,23.37
2017-09-03T10:01:56.426Z,21.37
2017-09-03T10:04:24.685Z,22.37
2017-09-03T10:06:52.427Z,18.87
2017-09-03T10:09:19.906Z,18.40
2017-09-03T10:11:47.365Z,19.20
2017-09-03T10:14:14.816Z,18.30
2017-09-03T10:16:43.037Z,19.20
2017-09-03T10:19:10.492Z,17.70
2017-09-03T10:21:37.962Z,15.30
2017-09-03T10:24:05.415Z,15.37
2017-09-03T10:26:32.888Z,15.43
2017-09-03T10:29:00.336Z,14.33
2017-09-03T10:31:27.884Z,15.50
2017-09-03T10:33:55.325Z,15.27
2017-09-03T10:36:22.784Z,15.80
2017-09-03T10:38:50.242Z,14.10
2017-09-03T10:41:17.837Z,13.40
2017-09-03T10:43:45.355Z,13.03
2017-09-03T10:46:12.844Z,15.03
2017-09-03T10:48:40.585Z,15.77
2017-09-03T10:51:08.210Z,13.03
2017-09-03T10:53:35.685Z,13.13
2017-09-03T10:56:03.209Z,12.90
2017-09-03T10:58:30.680Z,13.50
2017-09-03T11:00:58.197Z,12.93
2017-09-03T11:03:26.753Z,11.63
2017-09-03T11:05:54.258Z,9.80
2017-09-03T11:08:21.734Z,11.52
2017-09-03T11:10:49.201Z,11.27
2017-09-03T11:13:16.640Z,10.17
2017-09-03T11:15:44.101Z,11.50
2017-09-03T11:18:11.576Z,9.70
2017-09-03T11:20:39.028Z,10.90
2017-09-03T11:23:06.523Z,10.57
2017-09-03T11:25:34.229Z,10.60
2017-09-03T11:28:01.706Z,9.70
2017-09-03T11:30:29.329Z,9.97
2017-09-03T11:32:56.807Z,9.37
2017-09-03T11:35:24.266Z,9.73
2017-09-03T11:37:51.862Z,8.07
2017-09-03T11:40:19.312Z,7.60
2017-09-03T11:42:46.785Z,6.80
2017-09-03T11:45:14.558Z,7.50
2017-09-03T11:47:42.000Z,9.23
2017-09-03T11:50:09.469Z,9.00
2017-09-03T11:52:37.334Z,9.23
2017-09-03T11:55:11.909Z,7.40
2017-09-03T11:57:39.350Z,7.27
2017-09-03T12:00:06.826Z,6.73
2017-09-03T12:02:34.295Z,6.97
2017-09-03T12:05:01.986Z,6.78
2017-09-03T12:07:29.709Z,6.73
2017-09-03T12:09:57.285Z,6.97
2017-09-03T12:12:24.773Z,6.73
2017-09-03T12:14:52.252Z,7.57
2017-09-03T12:17:19.694Z,7.37
2017-09-03T12:19:47.305Z,6.70
2017-09-03T12:22:14.930Z,7.17
2017-09-03T12:24:42.389Z,6.77
2017-09-03T12:27:09.821Z,6.70
2017-09-03T12:29:37.289Z,6.33
2017-09-03T12:32:04.752Z,7.43
2017-09-03T12:34:32.195Z,7.13
2017-09-03T12:36:59.630Z,7.37
2017-09-03T12:39:27.112Z,7.50
2017-09-03T12:41:54.567Z,7.40
2017-09-03T12:44:22.114Z,7.63
2017-09-03T12:46:49.625Z,7.67
2017-09-03T12:49:19.338Z,7.90
2017-09-03T12:51:46.842Z,8.00
2017-09-03T12:54:15.312Z,7.10
2017-09-03T12:56:42.788Z,7.10
2017-09-03T12:59:10.235Z,6.70
2017-09-03T13:01:37.666Z,6.73
2017-09-03T13:04:05.143Z,7.60
2017-09-03T13:06:32.786Z,6.97
2017-09-03T13:09:00.209Z,6.53
2017-09-03T13:11:27.887Z,6.17
2017-09-03T13:13:55.470Z,7.07
2017-09-03T13:16:22.933Z,6.50
2017-09-03T13:18:50.712Z,6.97
2017-09-03T13:21:18.561Z,6.60
2017-09-03T13:23:46.556Z,6.30
2017-09-03T13:26:14.977Z,6.07
2017-09-03T13:28:42.940Z,6.50
2017-09-03T13:31:10.396Z,6.07
2017-09-03T13:33:37.860Z,5.80
2017-09-03T13:36:05.333Z,6.50
2017-09-03T13:38:32.776Z,6.40
2017-09-03T13:41:00.372Z,6.50
2017-09-03T13:43:27.809Z,6.00
2017-09-03T13:45:55.272Z,5.93
2017-09-03T13:48:22.741Z,5.57
2017-09-03T13:50:50.222Z,5.87
2017-09-03T13:53:17.661Z,5.50
2017-09-03T13:55:45.128Z,5.57
2017-09-03T13:58:12.572Z,5.63
2017-09-03T14:00:40.060Z,9.20
2017-09-03T14:03:07.502Z,8.40
2017-09-03T14:05:34.988Z,6.37
2017-09-03T14:08:02.690Z,6.40
2017-09-03T14:10:30.841Z,6.22
2017-09-03T14:12:58.282Z,6.00
2017-09-03T14:15:25.911Z,5.97
2017-09-03T14:17:53.420Z,6.00
2017-09-03T14:20:20.863Z,5.90
2017-09-03T14:22:49.228Z,5.53
2017-09-03T14:25:16.713Z,5.03
2017-09-03T14:27:44.194Z,5.50
2017-09-03T14:30:11.701Z,5.70
2017-09-03T14:32:39.176Z,5.80
2017-09-03T14:35:06.648Z,5.10
2017-09-03T14:37:34.140Z,5.35
2017-09-03T14:40:01.582Z,5.32
2017-09-03T14:42:29.026Z,5.73
2017-09-03T14:44:56.488Z,6.03
2017-09-03T14:47:24.014Z,6.15
2017-09-03T14:49:51.609Z,4.70
2017-09-03T14:52:19.319Z,5.80
2017-09-03T14:54:46.773Z,5.73
2017-09-03T14:57:14.230Z,5.70
2017-09-03T14:59:41.794Z,5.63
2017-09-03T15:02:09.268Z,4.67
2017-09-03T15:04:36.863Z,5.82
2017-09-03T15:07:04.371Z,5.67
2017-09-03T15:09:31.914Z,5.70
2017-09-03T15:11:59.412Z,5.43
2017-09-03T15:14:26.878Z,5.90
2017-09-03T15:16:54.403Z,5.00
2017-09-03T15:19:22.666Z,5.73
2017-09-03T15:21:50.110Z,5.10
2017-09-03T15:24:17.555Z,4.72
2017-09-03T15:26:45.010Z,4.20
2017-09-03T15:29:12.442Z,4.50
2017-09-03T15:31:39.933Z,4.35
2017-09-03T15:34:07.360Z,3.97
2017-09-03T15:36:34.817Z,4.53
2017-09-03T15:39:02.272Z,4.17
2017-09-03T15:41:29.755Z,5.70
2017-09-03T15:43:57.231Z,6.47
2017-09-03T15:46:24.927Z,4.97
2017-09-03T15:48:52.385Z,4.50
2017-09-03T15:51:20.523Z,3.65
2017-09-03T15:53:47.998Z,4.60
2017-09-03T15:56:15.459Z,4.30
2017-09-03T15:58:43.178Z,4.77
2017-09-03T16:01:10.654Z,4.33
2017-09-03T16:03:38.081Z,3.80
2017-09-03T16:06:05.529Z,3.60
2017-09-03T16:08:33.090Z,4.20
2017-09-03T16:11:00.574Z,3.23
2017-09-03T16:13:28.018Z,3.17
2017-09-03T16:15:55.512Z,3.70
2017-09-03T16:18:23.013Z,3.43
2017-09-03T16:20:51.227Z,3.37
2017-09-03T16:23:18.694Z,3.40
2017-09-03T16:25:46.266Z,4.37
2017-09-03T16:28:13.727Z,3.70
2017-09-03T16:30:41.260Z,3.20
2017-09-03T16:33:08.901Z,2.83
2017-09-03T16:35:36.372Z,2.83
2017-09-03T16:38:03.812Z,2.90
2017-09-03T16:40:31.317Z,2.53
2017-09-03T16:42:58.766Z,3.03
2017-09-03T16:45:26.226Z,3.50
2017-09-03T16:47:53.681Z,3.30
2017-09-03T16:50:21.907Z,3.30
2017-09-03T16:52:49.671Z,3.47
2017-09-03T16:55:17.109Z,3.10
2017-09-03T16:57:44.642Z,4.10
2017-09-03T17:00:12.144Z,3.25
2017-09-03T17:02:39.608Z,3.70
2017-09-03T17:05:07.109Z,3.63
2017-09-03T17:07:34.556Z,4.50
2017-09-03T17:10:02.054Z,3.75
2017-09-03T17:12:29.555Z,3.75
2017-09-03T17:14:57.030Z,3.90
2017-09-03T17:17:24.539Z,3.12
2017-09-03T17:19:57.113Z,3.50
2017-09-03T17:22:25.421Z,3.00
2017-09-03T17:24:53.783Z,3.47
2017-09-03T17:27:21.345Z,3.37
2017-09-03T17:29:48.814Z,3.90
2017-09-03T17:32:16.282Z,3.40
2017-09-03T17:34:47.456Z,3.63
2017-09-03T17:40:19.069Z,3.77
2017-09-03T17:42:48.237Z,3.80
2017-09-03T17:45:15.674Z,3.80
2017-09-03T17:47:43.151Z,3.60
2017-09-03T17:50:10.619Z,3.97
2017-09-03T17:52:38.867Z,3.73
2017-09-03T17:55:06.510Z,3.87
2017-09-03T17:57:34.000Z,4.18
2017-09-03T18:00:01.495Z,2.90
2017-09-03T18:02:28.956Z,4.70
2017-09-03T18:04:57.220Z,3.90
2017-09-03T18:07:25.773Z,4.40
2017-09-03T18:09:54.458Z,4.80
2017-09-03T18:12:21.913Z,4.50
2017-09-03T18:14:49.483Z,4.37
2017-09-03T18:17:16.969Z,4.40
2017-09-03T18:19:45.302Z,4.77
2017-09-03T18:22:12.980Z,5.23
2017-09-03T18:24:40.504Z,4.60
2017-09-03T18:27:08.981Z,6.30
2017-09-03T18:29:38.055Z,5.55
2017-09-03T18:32:05.491Z,4.90
2017-09-03T18:34:32.959Z,4.50
2017-09-03T18:37:13.169Z,4.62
2017-09-03T18:39:42.212Z,4.70
2017-09-03T18:42:25.319Z,4.90
2017-09-03T18:44:52.776Z,5.53
2017-09-03T18:47:20.298Z,5.17
2017-09-03T18:49:48.669Z,5.97
2017-09-03T18:52:18.060Z,5.33
2017-09-03T18:54:46.780Z,5.10
2017-09-03T18:57:14.257Z,4.87
2017-09-03T19:02:46.115Z,5.50
2017-09-03T19:05:32.322Z,5.90
2017-09-03T19:07:59.776Z,5.80
2017-09-03T19:10:28.738Z,6.97
2017-09-03T19:12:56.766Z,6.50
2017-09-03T19:15:24.268Z,6.10
2017-09-03T19:17:51.815Z,5.90
2017-09-03T19:20:19.298Z,6.60
2017-09-03T19:22:54.143Z,6.70
2017-09-03T19:25:24.981Z,6.67
2017-09-03T19:27:52.561Z,6.50
2017-09-03T19:30:19.990Z,6.70
2017-09-03T19:32:47.445Z,6.90
2017-09-03T19:35:14.936Z,6.20
2017-09-03T19:37:42.483Z,6.50
2017-09-03T19:40:09.933Z,6.62
2017-09-03T19:42:37.389Z,7.40
2017-09-03T19:45:04.854Z,6.00
2017-09-03T19:47:32.401Z,5.53
2017-09-03T19:49:59.853Z,6.27
2017-09-03T19:52:28.176Z,6.45
2017-09-03T19:54:55.612Z,6.20
2017-09-03T19:57:23.197Z,6.82
2017-09-03T19:59:50.626Z,6.30
2017-09-03T20:02:18.127Z,6.10
2017-09-03T20:04:45.575Z,5.47
2017-09-03T20:07:13.108Z,7.13
2017-09-03T20:09:40.564Z,7.03
2017-09-03T20:12:08.158Z,7.00
2017-09-03T20:14:36.396Z,6.83
2017-09-03T20:17:04.793Z,5.92
2017-09-03T20:19:32.273Z,5.90
2017-09-03T20:22:00.605Z,6.07
2017-09-03T20:24:29.730Z,6.30
2017-09-03T20:26:57.821Z,6.18
2017-09-03T20:29:25.306Z,6.35
2017-09-03T20:31:52.769Z,6.90
2017-09-03T20:34:22.082Z,5.63
2017-09-03T20:36:49.676Z,5.57
2017-09-03T20:39:17.164Z,5.53
2017-09-03T20:41:44.640Z,6.95
2017-09-03T20:44:12.102Z,6.43
2017-09-03T20:46:39.610Z,7.03
2017-09-03T20:49:07.067Z,6.00
2017-09-03T20:51:34.729Z,6.18
2017-09-03T20:54:02.240Z,6.30
2017-09-03T20:56:30.196Z,6.97
2017-09-03T20:58:57.643Z,6.93
2017-09-03T21:01:25.107Z,7.97
2017-09-03T21:03:52.569Z,7.20
2017-09-03T21:06:20.267Z,7.50
2017-09-03T21:08:47.729Z,7.47
2017-09-03T21:11:15.206Z,7.73
2017-09-03T21:13:43.498Z,7.03
2017-09-03T21:16:10.979Z,8.77
2017-09-03T21:18:38.479Z,12.80
2017-09-03T21:21:05.981Z,21.06
2017-09-03T21:23:33.470Z,25.77
2017-09-03T21:26:01.203Z,23.77
2017-09-03T21:28:29.632Z,26.80
2017-09-03T21:30:57.170Z,24.20
2017-09-03T21:33:24.651Z,22.20
2017-09-03T21:35:52.080Z,21.90
2017-09-03T21:38:19.758Z,20.27
2017-09-03T21:40:47.250Z,16.97
2017-09-03T21:43:14.709Z,16.23
2017-09-03T21:45:42.206Z,15.20
2017-09-03T21:48:09.674Z,13.20
2017-09-03T21:50:37.401Z,14.77
2017-09-03T21:53:04.900Z,12.77
2017-09-03T21:55:32.376Z,14.25
2017-09-03T21:58:00.656Z,14.30
2017-09-03T22:00:28.127Z,13.70
2017-09-03T22:02:55.580Z,14.60
2017-09-03T22:05:23.058Z,12.23
2017-09-03T22:07:50.508Z,11.80
2017-09-03T22:10:18.287Z,12.57
2017-09-03T22:12:45.741Z,13.73
2017-09-03T22:15:13.218Z,12.80
2017-09-03T22:17:40.665Z,12.70
2017-09-03T22:20:08.133Z,12.63
2017-09-03T22:22:35.581Z,13.80
2017-09-03T22:25:04.488Z,13.90
2017-09-03T22:27:32.045Z,13.30
2017-09-03T22:29:59.482Z,13.60
2017-09-03T22:32:26.962Z,15.23
2017-09-03T22:34:54.418Z,15.07
2017-09-03T22:37:21.888Z,15.05
2017-09-03T22:39:49.357Z,13.73
2017-09-03T22:42:16.825Z,14.33
2017-09-03T22:44:44.296Z,13.83
2017-09-03T22:47:11.708Z,13.97
2017-09-03T22:49:40.074Z,12.30
2017-09-03T22:52:07.514Z,13.15
2017-09-03T22:54:34.997Z,12.60
2017-09-03T22:57:02.446Z,13.37
2017-09-03T22:59:29.893Z,13.20
2017-09-03T23:01:57.360Z,13.57
2017-09-03T23:04:24.813Z,18.87
2017-09-03T23:06:52.599Z,20.37
2017-09-03T23:09:20.058Z,22.23
2017-09-03T23:11:47.508Z,19.80
2017-09-03T23:14:15.264Z,19.80
2017-09-03T23:16:42.740Z,17.20
2017-09-03T23:19:10.217Z,17.62
2017-09-03T23:21:37.645Z,18.02
2017-09-03T23:24:05.661Z,18.05
2017-09-03T23:26:33.444Z,15.63
2017-09-03T23:29:00.890Z,17.10
2017-09-03T23:31:28.372Z,15.30
2017-09-03T23:33:56.051Z,13.50
2017-09-03T23:36:23.502Z,12.00
2017-09-03T23:38:51.087Z,12.13
2017-09-03T23:41:18.530Z,10.60
2017-09-03T23:43:46.000Z,11.53
2017-09-03T23:46:13.449Z,10.80
2017-09-03T23:48:40.897Z,11.10
2017-09-03T23:51:08.357Z,10.80
2017-09-03T23:53:35.864Z,9.70
2017-09-03T23:56:04.810Z,11.00
2017-09-03T23:58:32.631Z,9.30
